Previous Day
Next Day
Current Day
SHEF ID: FVSO2 FAIRVIEW
STATION TYPE: Mesonet
PRECIP AIR-TEMP WIND-DIRWIND-SPEED REL-HUMID SOLAR-RAD
in F deg mph % W/m2
Raw-Meson Raw-Meson Raw-Meson Raw-Meson Raw-Meson Raw-Meson
(US/Central)
05/17 00:00 0.00 59.86 138.25 2.29 98.50 0.00
05/17 01:00 0.00 61.25 79.50 3.86 99.00 0.00
05/17 02:00 0.00 61.61 179.25 3.30 99.00 0.00
05/17 03:00 0.00 62.02 91.50 3.41 99.00 0.00
05/17 04:00 0.00 61.66 221.50 3.75 99.00 0.00
05/17 05:00 0.00 61.12 339.50 4.58 99.00 0.00
05/17 06:00 0.00 61.03 341.50 3.19 99.00 0.00
05/17 07:00 0.00 60.26 51.00 2.46 99.50 6.50
05/17 08:00 0.00 60.44 71.75 5.81 99.00 70.00
05/17 09:00 0.00 62.42 109.50 4.97 98.00 249.25
05/17 10:00 0.00 64.89 123.75 7.16 88.25 235.50
05/17 11:00 0.00 66.06 75.50 4.31 82.50 354.25
05/17 12:00 0.00 68.18 96.75 3.24 77.50 601.50
05/17 13:00 0.00 70.07 32.00 3.75 74.50 456.50
05/17 14:00 0.00 71.91 50.25 6.49 71.75 603.25
05/17 15:00 0.00 74.16 104.25 5.76 65.25 872.75
05/17 16:00 0.00 75.02 106.75 6.54 63.50 637.75
05/17 17:00 0.00 75.69 121.25 4.75 62.25 610.75
05/17 18:00 0.00 76.23 115.50 5.54 61.75 397.00
05/17 19:00 0.00 75.88 129.50 6.26 63.75 289.75
05/17 20:00 0.00 73.72 105.00 5.81 69.00 131.25
05/17 21:00 0.00 69.53 113.50 5.59 82.00 6.50
05/17 22:00 0.00 67.55 126.75 6.21 84.75 0.00
05/17 23:00 ---- 65.30 149.00 4.25 90.25 0.00